Clermont, New Jersey
Current Conditions -  °F | °C
As of 3:35 AM on Friday 24 Oct 2014 (Local Time) from KWWD Reporting Station
Overcast Overcast  
Wind Chill: 55°   Ceiling: 4000
Heat Index: 55°   Visibility: 10mi
Dew Point: 43°   Wind: 10mph
Humidity: 63%   Direction: 320°NW
Pressure: 29.83"   Gusts: 16mph
Location:  39.1108°N, 74.8241°W
Report Text: KWWD 240735Z AUTO 32009G14KT 10SM BKN040 OVC080 13/06 A2983 RMK AO1
Loading
Personal Weather Stations






























Interactive Weather Map
Tropical Storm Tracking
New forecast layout! Learn more

10-Day Weather Forecast

Advertisements
Track Severe Weather on mobile